createdAt,value
2023-04-24T00:00:48.070Z,3.43
2023-04-24T00:03:16.896Z,3.00
2023-04-24T00:05:45.649Z,3.20
2023-04-24T00:08:15.799Z,2.77
2023-04-24T00:10:44.664Z,3.20
2023-04-24T00:13:13.528Z,3.17
2023-04-24T00:15:42.084Z,3.40
2023-04-24T00:18:10.620Z,3.27
2023-04-24T00:20:39.164Z,3.40
2023-04-24T00:23:07.802Z,3.43
2023-04-24T00:25:37.849Z,3.40
2023-04-24T00:28:06.505Z,3.40
2023-04-24T00:30:35.116Z,3.10
2023-04-24T00:33:04.051Z,3.00
2023-04-24T00:35:32.660Z,3.37
2023-04-24T00:38:01.221Z,3.40
2023-04-24T00:40:30.410Z,3.50
2023-04-24T00:43:00.469Z,3.07
2023-04-24T00:45:29.069Z,3.23
2023-04-24T00:47:59.728Z,3.40
2023-04-24T00:50:28.746Z,3.17
2023-04-24T00:52:57.600Z,3.60
2023-04-24T00:55:28.055Z,3.27
2023-04-24T00:57:57.141Z,3.17
2023-04-24T01:00:27.805Z,3.30
2023-04-24T01:03:00.251Z,3.67
2023-04-24T01:05:29.286Z,3.40
2023-04-24T01:07:58.864Z,3.23
2023-04-24T01:10:29.741Z,3.57
2023-04-24T01:12:59.066Z,3.20
2023-04-24T01:15:29.126Z,3.30
2023-04-24T01:17:57.559Z,3.33
2023-04-24T01:20:27.219Z,3.40
2023-04-24T01:22:58.679Z,3.50
2023-04-24T01:25:29.399Z,3.27
2023-04-24T01:27:59.607Z,3.53
2023-04-24T01:30:28.732Z,3.77
2023-04-24T01:32:58.404Z,3.10
2023-04-24T01:35:27.502Z,3.30
2023-04-24T01:37:57.757Z,3.13
2023-04-24T01:40:27.012Z,3.00
2023-04-24T01:42:55.785Z,2.93
2023-04-24T01:45:24.654Z,3.20
2023-04-24T01:47:53.475Z,3.10
2023-04-24T01:50:22.104Z,2.90
2023-04-24T01:52:50.831Z,2.90
2023-04-24T01:55:20.967Z,2.67
2023-04-24T01:57:49.813Z,2.43
2023-04-24T02:00:18.495Z,2.40
2023-04-24T02:02:48.541Z,2.50
2023-04-24T02:05:17.498Z,2.40
2023-04-24T02:07:46.222Z,2.40
2023-04-24T02:10:14.791Z,2.20
2023-04-24T02:12:46.215Z,2.17
2023-04-24T02:15:16.063Z,2.10
2023-04-24T02:17:44.595Z,2.00
2023-04-24T02:20:13.398Z,2.30
2023-04-24T02:22:41.891Z,2.30
2023-04-24T02:25:11.138Z,2.73
2023-04-24T02:27:39.870Z,2.20
2023-04-24T02:30:11.406Z,2.10
2023-04-24T02:32:40.293Z,2.23
2023-04-24T02:35:13.134Z,2.30
2023-04-24T02:37:41.881Z,2.23
2023-04-24T02:40:14.590Z,2.40
2023-04-24T02:42:43.274Z,2.20
2023-04-24T02:45:13.738Z,2.07
2023-04-24T02:47:42.277Z,1.90
2023-04-24T02:50:11.619Z,2.10
2023-04-24T02:52:40.236Z,2.07
2023-04-24T02:55:10.052Z,1.83
2023-04-24T02:57:38.723Z,2.00
2023-04-24T03:00:10.273Z,2.20
2023-04-24T03:02:40.661Z,1.90
2023-04-24T03:05:10.198Z,2.03
2023-04-24T03:07:38.892Z,1.97
2023-04-24T03:10:09.138Z,1.93
2023-04-24T03:12:37.794Z,1.77
2023-04-24T03:15:07.179Z,2.13
2023-04-24T03:17:40.814Z,2.00
2023-04-24T03:20:10.887Z,1.93
2023-04-24T03:22:39.987Z,1.80
2023-04-24T03:25:11.049Z,1.70
2023-04-24T03:27:40.626Z,1.70
2023-04-24T03:30:18.522Z,1.70
2023-04-24T03:32:54.164Z,1.90
2023-04-24T03:35:27.749Z,1.77
2023-04-24T03:37:57.445Z,1.60
2023-04-24T03:40:41.005Z,1.60
2023-04-24T03:43:23.208Z,1.80
2023-04-24T03:45:52.183Z,1.60
2023-04-24T03:48:23.331Z,1.70
2023-04-24T03:50:52.319Z,2.00
2023-04-24T03:53:21.037Z,1.90
2023-04-24T03:55:50.857Z,1.73
2023-04-24T03:58:20.083Z,1.40
2023-04-24T04:00:49.140Z,1.73
2023-04-24T04:03:46.641Z,1.70
2023-04-24T04:06:19.367Z,1.53
2023-04-24T04:08:48.620Z,1.80
2023-04-24T04:11:17.113Z,1.50
2023-04-24T04:13:49.067Z,1.73
2023-04-24T04:16:21.247Z,1.80
2023-04-24T04:18:53.572Z,1.73
2023-04-24T04:21:22.347Z,1.97
2023-04-24T04:23:54.300Z,1.80
2023-04-24T04:26:29.245Z,2.00
2023-04-24T04:29:04.683Z,2.27
2023-04-24T04:31:35.044Z,2.10
2023-04-24T04:34:10.250Z,2.00
2023-04-24T04:36:44.018Z,1.83
2023-04-24T04:39:42.312Z,2.20
2023-04-24T04:42:24.775Z,1.90
2023-04-24T04:44:53.791Z,2.03
2023-04-24T04:47:29.787Z,1.80
2023-04-24T04:50:01.162Z,2.20
2023-04-24T04:52:30.940Z,1.90
2023-04-24T04:55:21.021Z,2.20
2023-04-24T04:58:12.123Z,2.00
2023-04-24T05:00:40.919Z,2.10
2023-04-24T05:03:21.483Z,2.07
2023-04-24T05:05:58.170Z,1.90
2023-04-24T05:08:28.067Z,2.20
2023-04-24T05:10:57.920Z,2.00
2023-04-24T05:13:39.417Z,2.10
2023-04-24T05:16:26.747Z,2.20
2023-04-24T05:18:56.938Z,2.23
2023-04-24T05:21:33.047Z,1.90
2023-04-24T05:24:02.486Z,2.20
2023-04-24T05:26:48.098Z,2.20
2023-04-24T05:29:20.267Z,2.03
2023-04-24T05:31:49.580Z,2.20
2023-04-24T05:34:18.398Z,2.50
2023-04-24T05:36:54.254Z,2.37
2023-04-24T05:39:22.968Z,2.30
2023-04-24T05:41:51.782Z,2.43
2023-04-24T05:44:20.588Z,2.30
2023-04-24T05:46:50.294Z,2.40
2023-04-24T05:49:19.553Z,3.03
2023-04-24T05:51:48.755Z,2.50
2023-04-24T05:54:20.221Z,2.40
2023-04-24T05:56:49.174Z,1.93
2023-04-24T05:59:24.934Z,2.50
2023-04-24T06:01:54.031Z,2.17
2023-04-24T06:04:25.606Z,2.30
2023-04-24T06:06:57.052Z,2.30
2023-04-24T06:09:28.150Z,2.10
2023-04-24T06:11:57.714Z,2.07
2023-04-24T06:14:31.371Z,2.60
2023-04-24T06:17:18.678Z,2.00
2023-04-24T06:19:50.033Z,2.03
2023-04-24T06:22:18.962Z,2.07
2023-04-24T06:24:50.765Z,1.57
2023-04-24T06:27:20.056Z,1.33
2023-04-24T06:29:53.830Z,1.50
2023-04-24T06:32:23.469Z,1.70
2023-04-24T06:34:54.043Z,1.67
2023-04-24T06:37:23.153Z,1.80
2023-04-24T06:39:53.309Z,1.63
2023-04-24T06:42:23.168Z,1.50
2023-04-24T06:44:52.238Z,1.20
2023-04-24T06:47:21.060Z,1.40
2023-04-24T06:49:52.081Z,1.40
2023-04-24T06:52:21.426Z,1.30
2023-04-24T06:54:50.125Z,1.43
2023-04-24T06:57:21.014Z,1.17
2023-04-24T06:59:50.054Z,1.10
2023-04-24T07:02:18.837Z,2.93
2023-04-24T07:04:48.701Z,1.27
2023-04-24T07:07:17.720Z,1.30
2023-04-24T07:09:47.177Z,1.30
2023-04-24T07:12:16.099Z,1.20
2023-04-24T07:14:46.315Z,1.30
2023-04-24T07:17:15.770Z,1.10
2023-04-24T07:19:45.000Z,1.37
2023-04-24T07:22:18.029Z,1.00
2023-04-24T07:24:46.887Z,1.33
2023-04-24T07:27:16.448Z,1.40
2023-04-24T07:29:47.038Z,1.23
2023-04-24T07:32:16.037Z,1.45
2023-04-24T07:34:44.900Z,1.20
2023-04-24T07:37:13.893Z,1.50
2023-04-24T07:39:43.310Z,1.40
2023-04-24T07:42:12.461Z,1.35
2023-04-24T07:44:41.182Z,1.70
2023-04-24T07:47:11.788Z,1.52
2023-04-24T07:49:40.553Z,1.77
2023-04-24T07:52:09.391Z,1.58
2023-04-24T07:54:38.664Z,1.80
2023-04-24T07:57:08.123Z,1.60
2023-04-24T07:59:36.950Z,1.65
2023-04-24T08:02:05.760Z,1.77
2023-04-24T08:04:37.272Z,1.80
2023-04-24T08:07:06.152Z,1.48
2023-04-24T08:09:34.866Z,1.95
2023-04-24T08:12:03.697Z,1.48
2023-04-24T08:14:32.375Z,1.90
2023-04-24T08:17:01.736Z,1.83
2023-04-24T08:19:30.513Z,1.52
2023-04-24T08:22:00.890Z,1.85
2023-04-24T08:24:29.537Z,1.90
2023-04-24T08:26:59.318Z,2.03
2023-04-24T08:29:28.526Z,1.92
2023-04-24T08:31:57.141Z,2.60
2023-04-24T08:34:27.839Z,1.90
2023-04-24T08:36:58.461Z,2.20
2023-04-24T08:39:28.832Z,2.22
2023-04-24T08:41:58.264Z,2.10
2023-04-24T08:44:27.250Z,2.22
2023-04-24T08:46:56.712Z,2.08
2023-04-24T08:49:28.142Z,3.00
2023-04-24T08:51:57.209Z,2.25
2023-04-24T08:54:28.212Z,2.30
2023-04-24T08:57:02.133Z,2.42
2023-04-24T08:59:31.423Z,2.60
2023-04-24T09:02:00.685Z,2.40
2023-04-24T09:04:31.486Z,2.42
2023-04-24T09:07:02.090Z,2.30
2023-04-24T09:09:35.034Z,2.17
2023-04-24T09:12:04.915Z,2.05
2023-04-24T09:14:34.875Z,2.15
2023-04-24T09:17:03.543Z,2.80
2023-04-24T09:19:32.144Z,2.05
2023-04-24T09:22:00.837Z,2.10
2023-04-24T09:24:29.711Z,1.98
2023-04-24T09:27:02.570Z,2.10
2023-04-24T09:29:33.062Z,2.42
2023-04-24T09:32:02.067Z,2.17
2023-04-24T09:34:31.752Z,1.80
2023-04-24T09:37:00.821Z,2.28
2023-04-24T09:39:29.598Z,2.00
2023-04-24T09:42:00.364Z,1.95
2023-04-24T09:44:30.218Z,2.22
2023-04-24T09:47:01.127Z,2.10
2023-04-24T09:49:31.198Z,2.00
2023-04-24T09:52:06.122Z,1.83
2023-04-24T09:54:34.896Z,1.88
2023-04-24T09:57:10.091Z,2.20
2023-04-24T09:59:46.175Z,1.90
2023-04-24T10:02:20.218Z,1.88
2023-04-24T10:04:57.959Z,1.70
2023-04-24T10:07:28.758Z,1.80
2023-04-24T10:09:57.741Z,1.92
2023-04-24T10:12:30.274Z,1.90
2023-04-24T10:15:00.287Z,2.05
2023-04-24T10:17:30.147Z,1.90
2023-04-24T10:20:00.195Z,1.67
2023-04-24T10:22:31.474Z,1.60
2023-04-24T10:25:01.768Z,1.52
2023-04-24T10:27:33.225Z,1.88
2023-04-24T10:30:02.894Z,1.60
2023-04-24T10:32:31.645Z,1.30
2023-04-24T10:35:03.727Z,1.20
2023-04-24T10:37:39.720Z,1.10
2023-04-24T10:40:10.808Z,1.30
2023-04-24T10:42:44.763Z,1.10
2023-04-24T10:45:20.299Z,1.10
2023-04-24T10:47:55.012Z,1.30
2023-04-24T10:50:23.849Z,1.00
2023-04-24T10:52:53.863Z,1.00
2023-04-24T10:55:44.779Z,1.23
2023-04-24T10:58:16.030Z,1.15
2023-04-24T11:00:46.520Z,1.27
2023-04-24T11:03:30.335Z,1.40
2023-04-24T11:06:01.751Z,1.60
2023-04-24T11:08:33.272Z,1.23
2023-04-24T11:11:12.083Z,1.50
2023-04-24T11:14:09.615Z,1.58
2023-04-24T11:16:45.730Z,1.50
2023-04-24T11:19:24.649Z,1.80
2023-04-24T11:22:01.541Z,1.80
2023-04-24T11:24:32.994Z,1.67
2023-04-24T11:27:08.025Z,1.60
2023-04-24T11:29:50.269Z,1.30
2023-04-24T11:32:26.996Z,1.90
2023-04-24T11:34:57.836Z,1.65
2023-04-24T11:37:28.882Z,1.80
2023-04-24T11:39:59.128Z,1.80
2023-04-24T11:42:28.292Z,1.90
2023-04-24T11:44:59.017Z,1.60
2023-04-24T11:47:33.829Z,1.60
2023-04-24T11:50:03.582Z,1.60
2023-04-24T11:52:32.943Z,1.60
2023-04-24T11:55:02.791Z,1.70
2023-04-24T11:57:34.935Z,1.60
2023-04-24T12:00:07.759Z,2.00
2023-04-24T12:02:43.591Z,1.70
2023-04-24T12:05:24.041Z,1.65
2023-04-24T12:07:53.285Z,1.90
2023-04-24T12:10:26.116Z,1.60
2023-04-24T12:12:55.260Z,1.92
2023-04-24T12:15:25.866Z,2.42
2023-04-24T12:17:55.675Z,2.17
2023-04-24T12:20:27.717Z,2.15
2023-04-24T12:22:57.867Z,2.42
2023-04-24T12:25:27.849Z,2.30
2023-04-24T12:27:58.519Z,2.10
2023-04-24T12:30:31.725Z,2.28
2023-04-24T12:33:01.943Z,2.13
2023-04-24T12:35:34.680Z,2.28
2023-04-24T12:38:09.213Z,1.90
2023-04-24T12:40:38.149Z,2.13
2023-04-24T12:43:17.311Z,1.98
2023-04-24T12:45:47.494Z,2.10
2023-04-24T12:48:16.372Z,2.10
2023-04-24T12:50:46.431Z,2.20
2023-04-24T12:53:16.543Z,2.38
2023-04-24T12:55:46.242Z,2.10
2023-04-24T12:58:15.112Z,2.30
2023-04-24T13:00:46.910Z,2.10
2023-04-24T13:03:17.593Z,2.00
2023-04-24T13:05:46.376Z,1.85
2023-04-24T13:08:15.266Z,2.10
2023-04-24T13:10:44.090Z,2.13
2023-04-24T13:13:12.846Z,1.85
2023-04-24T13:15:41.560Z,1.98
2023-04-24T13:18:10.285Z,1.80
2023-04-24T13:20:42.178Z,1.90
2023-04-24T13:23:11.255Z,1.90
2023-04-24T13:25:40.239Z,1.98
2023-04-24T13:28:08.946Z,2.03
2023-04-24T13:30:37.579Z,1.83
2023-04-24T13:33:06.333Z,1.88
2023-04-24T13:35:35.012Z,1.92
2023-04-24T13:38:07.147Z,1.70
2023-04-24T13:40:36.552Z,2.10
2023-04-24T13:43:05.386Z,2.13
2023-04-24T13:45:34.046Z,2.17
2023-04-24T13:48:04.256Z,2.35
2023-04-24T13:50:33.005Z,2.17
2023-04-24T13:53:02.976Z,1.80
2023-04-24T13:55:33.284Z,1.90
2023-04-24T13:58:02.448Z,1.80
2023-04-24T14:00:32.133Z,1.70
2023-04-24T14:03:01.014Z,1.60
2023-04-24T14:05:29.654Z,1.30
2023-04-24T14:07:58.173Z,1.50
2023-04-24T14:10:28.200Z,1.40
2023-04-24T14:12:58.520Z,1.70
2023-04-24T14:15:31.705Z,2.10
2023-04-24T14:18:00.687Z,1.60
2023-04-24T14:20:29.352Z,1.75
2023-04-24T14:23:00.534Z,2.10
2023-04-24T14:25:29.309Z,2.00
2023-04-24T14:27:59.345Z,2.17
2023-04-24T14:30:28.001Z,2.28
2023-04-24T14:32:56.692Z,2.00
2023-04-24T14:35:25.313Z,2.20
2023-04-24T14:37:53.955Z,2.00
2023-04-24T14:40:48.364Z,2.20
2023-04-24T14:43:12.736Z,2.20
2023-04-24T14:45:42.446Z,2.35
2023-04-24T14:48:12.395Z,2.20
2023-04-24T14:50:41.044Z,2.03
2023-04-24T14:53:09.845Z,2.00
2023-04-24T14:55:38.425Z,2.10
2023-04-24T14:58:07.131Z,2.10
2023-04-24T15:00:37.121Z,1.90
2023-04-24T15:03:06.765Z,2.20
2023-04-24T15:05:35.720Z,2.08
2023-04-24T15:08:04.746Z,2.30
2023-04-24T15:10:33.451Z,2.20
2023-04-24T15:13:02.079Z,2.33
2023-04-24T15:15:30.939Z,2.42
2023-04-24T15:18:01.115Z,2.45
2023-04-24T15:20:29.798Z,2.70
2023-04-24T15:23:00.420Z,2.50
2023-04-24T15:25:29.161Z,2.50
2023-04-24T15:27:58.787Z,2.60
2023-04-24T15:30:27.532Z,2.38
2023-04-24T15:32:56.219Z,2.40
2023-04-24T15:35:26.478Z,2.67
2023-04-24T15:37:55.048Z,2.50
2023-04-24T15:40:23.801Z,2.65
2023-04-24T15:42:52.530Z,2.65
2023-04-24T15:45:21.337Z,2.70
2023-04-24T15:47:51.060Z,2.85
2023-04-24T15:50:21.730Z,3.13
2023-04-24T15:52:51.767Z,3.10
2023-04-24T15:55:23.766Z,3.07
2023-04-24T15:57:52.531Z,3.40
2023-04-24T16:00:22.061Z,3.07
2023-04-24T16:02:51.823Z,3.10
2023-04-24T16:05:22.906Z,3.27
2023-04-24T16:07:53.025Z,3.20
2023-04-24T16:10:21.814Z,3.30
2023-04-24T16:12:53.449Z,3.57
2023-04-24T16:15:22.758Z,3.23
2023-04-24T16:17:52.164Z,3.13
2023-04-24T16:20:26.892Z,3.03
2023-04-24T16:22:56.945Z,3.67
2023-04-24T16:25:30.311Z,2.90
2023-04-24T16:27:59.036Z,3.20
2023-04-24T16:30:27.756Z,3.00
2023-04-24T16:32:56.683Z,2.97
2023-04-24T16:35:25.491Z,2.60
2023-04-24T16:37:57.571Z,3.33
2023-04-24T16:40:26.471Z,3.17
2023-04-24T16:42:55.180Z,3.20
2023-04-24T16:45:23.832Z,3.00
2023-04-24T16:47:52.456Z,3.13
2023-04-24T16:50:21.355Z,3.43
2023-04-24T16:52:50.156Z,3.70
2023-04-24T16:55:20.387Z,3.47
2023-04-24T16:57:49.117Z,3.30
2023-04-24T17:00:18.429Z,3.03
2023-04-24T17:02:48.959Z,3.17
2023-04-24T17:05:19.389Z,3.20
2023-04-24T17:07:48.075Z,3.23
2023-04-24T17:10:16.658Z,3.50
2023-04-24T17:12:46.670Z,3.33
2023-04-24T17:15:15.293Z,3.20
2023-04-24T17:17:44.461Z,3.07
2023-04-24T17:20:21.887Z,3.00
2023-04-24T17:22:51.866Z,3.23
2023-04-24T17:25:21.297Z,3.17
2023-04-24T17:27:51.397Z,3.10
2023-04-24T17:30:20.123Z,3.22
2023-04-24T17:32:48.750Z,3.50
2023-04-24T17:35:43.891Z,3.22
2023-04-24T17:38:13.812Z,3.55
2023-04-24T17:40:42.306Z,3.80
2023-04-24T17:43:12.691Z,3.33
2023-04-24T17:46:48.325Z,3.20
2023-04-24T17:49:16.945Z,3.43
2023-04-24T17:51:48.983Z,3.80
2023-04-24T17:54:18.341Z,3.40
2023-04-24T17:56:47.652Z,3.50
2023-04-24T17:59:47.255Z,3.60
2023-04-24T18:02:16.256Z,3.57
2023-04-24T18:04:45.128Z,3.43
2023-04-24T18:07:13.937Z,3.90
2023-04-24T18:10:38.404Z,3.43
2023-04-24T18:13:07.229Z,3.70
2023-04-24T18:15:37.292Z,3.60
2023-04-24T18:18:06.156Z,3.70
2023-04-24T18:20:59.808Z,3.43
2023-04-24T18:23:28.530Z,3.47
2023-04-24T18:25:57.166Z,3.60
2023-04-24T18:28:25.880Z,4.10
2023-04-24T18:30:55.993Z,3.80
2023-04-24T18:33:24.637Z,3.87
2023-04-24T18:35:53.229Z,3.80
2023-04-24T18:38:22.204Z,3.87
2023-04-24T18:41:16.879Z,3.97
2023-04-24T18:45:04.048Z,4.20
2023-04-24T18:47:34.334Z,3.90
2023-04-24T18:51:11.406Z,4.10
2023-04-24T18:53:40.218Z,3.97
2023-04-24T18:56:08.846Z,4.10
2023-04-24T18:58:37.459Z,4.13
2023-04-24T19:01:08.185Z,4.70
2023-04-24T19:03:38.509Z,4.20
2023-04-24T19:06:07.404Z,4.40
2023-04-24T19:08:38.595Z,4.20
2023-04-24T19:11:07.366Z,4.80
2023-04-24T19:13:35.974Z,4.30
2023-04-24T19:16:04.576Z,4.87
2023-04-24T19:18:33.222Z,4.67
2023-04-24T19:21:03.260Z,4.77
2023-04-24T19:23:33.414Z,4.90
2023-04-24T19:26:02.272Z,4.67
2023-04-24T19:28:30.908Z,4.70
2023-04-24T19:31:00.127Z,4.90
2023-04-24T19:33:29.085Z,4.87
2023-04-24T19:35:57.788Z,4.53
2023-04-24T19:38:28.023Z,5.27
2023-04-24T19:40:56.503Z,4.70
2023-04-24T19:43:25.328Z,4.80
2023-04-24T19:45:53.926Z,5.20
2023-04-24T19:48:22.572Z,5.10
2023-04-24T19:50:51.278Z,5.07
2023-04-24T19:53:19.792Z,5.20
2023-04-24T19:55:55.771Z,5.13
2023-04-24T19:58:24.257Z,5.10
2023-04-24T20:00:52.812Z,5.60
2023-04-24T20:03:32.060Z,6.00
2023-04-24T20:06:02.525Z,5.63
2023-04-24T20:08:31.068Z,5.60
2023-04-24T20:11:01.133Z,5.40
2023-04-24T20:13:31.986Z,5.03
2023-04-24T20:16:00.810Z,5.20
2023-04-24T20:18:29.317Z,5.20
2023-04-24T20:21:00.095Z,5.40
2023-04-24T20:23:28.835Z,5.60
2023-04-24T20:25:59.091Z,4.90
2023-04-24T20:28:30.445Z,5.43
2023-04-24T20:30:59.987Z,5.47
2023-04-24T20:33:30.532Z,4.97
2023-04-24T20:35:59.046Z,5.37
2023-04-24T20:38:27.664Z,5.47
2023-04-24T20:40:58.160Z,5.47
2023-04-24T20:43:29.471Z,5.20
2023-04-24T20:45:59.315Z,4.90
2023-04-24T20:48:27.988Z,4.93
2023-04-24T20:50:56.698Z,5.47
2023-04-24T20:53:25.826Z,5.63
2023-04-24T20:55:54.494Z,5.87
2023-04-24T20:58:23.982Z,5.40
2023-04-24T21:00:54.185Z,5.10
2023-04-24T21:03:22.796Z,5.70
2023-04-24T21:05:51.461Z,5.37
2023-04-24T21:08:20.012Z,6.00
2023-04-24T21:10:48.584Z,5.63
2023-04-24T21:13:17.066Z,5.80
2023-04-24T21:15:45.562Z,5.60
2023-04-24T21:18:16.268Z,5.30
2023-04-24T21:20:44.756Z,5.67
2023-04-24T21:23:13.296Z,5.30
2023-04-24T21:25:41.931Z,5.67
2023-04-24T21:28:10.544Z,5.13
2023-04-24T21:30:39.594Z,5.40
2023-04-24T21:33:08.233Z,5.83
2023-04-24T21:35:38.324Z,5.27
2023-04-24T21:38:07.079Z,5.40
2023-04-24T21:40:35.622Z,5.23
2023-04-24T21:43:04.152Z,4.90
2023-04-24T21:45:32.879Z,4.70
2023-04-24T21:48:02.093Z,5.10
2023-04-24T21:50:30.849Z,4.60
2023-04-24T21:53:00.896Z,5.00
2023-04-24T21:55:29.626Z,4.93
2023-04-24T21:57:58.544Z,5.30
2023-04-24T22:00:27.304Z,4.40
2023-04-24T22:02:56.107Z,5.07
2023-04-24T22:05:24.902Z,4.60
2023-04-24T22:07:54.295Z,4.77
2023-04-24T22:10:24.333Z,4.30
2023-04-24T22:12:53.059Z,4.53
2023-04-24T22:15:21.821Z,4.17
2023-04-24T22:17:52.765Z,4.17
2023-04-24T22:20:21.537Z,4.20
2023-04-24T22:22:50.277Z,3.93
2023-04-24T22:25:19.943Z,4.27
2023-04-24T22:27:50.732Z,3.97
2023-04-24T22:30:19.624Z,3.67
2023-04-24T22:32:48.959Z,4.13
2023-04-24T22:35:19.440Z,4.27
2023-04-24T22:37:48.921Z,4.37
2023-04-24T22:40:17.674Z,3.90
2023-04-24T22:42:46.670Z,4.10
2023-04-24T22:45:16.770Z,4.37
2023-04-24T22:47:45.506Z,4.27
2023-04-24T22:50:14.148Z,4.33
2023-04-24T22:52:44.018Z,4.50
2023-04-24T22:55:15.859Z,4.40
2023-04-24T22:57:44.409Z,4.50
2023-04-24T23:00:13.742Z,4.10
2023-04-24T23:02:44.102Z,4.23
2023-04-24T23:05:12.745Z,4.53
2023-04-24T23:07:41.318Z,4.40
2023-04-24T23:10:10.813Z,4.13
2023-04-24T23:12:39.773Z,4.30
2023-04-24T23:15:09.798Z,3.90
2023-04-24T23:17:38.340Z,4.50
2023-04-24T23:20:13.253Z,4.33
2023-04-24T23:22:42.634Z,4.30
2023-04-24T23:25:11.617Z,4.40
2023-04-24T23:27:40.086Z,4.27
2023-04-24T23:30:09.868Z,4.80
2023-04-24T23:32:38.476Z,4.43
2023-04-24T23:35:09.260Z,4.63
2023-04-24T23:37:38.677Z,4.80
2023-04-24T23:40:09.895Z,4.77
2023-04-24T23:42:38.627Z,4.40
2023-04-24T23:45:07.955Z,4.43
2023-04-24T23:47:36.518Z,4.63
2023-04-24T23:50:05.549Z,4.93
2023-04-24T23:52:36.216Z,4.60
2023-04-24T23:55:05.137Z,4.60
2023-04-24T23:57:33.711Z,4.70
